sensor_id;sensor_type;location;lat;lon;timestamp;P1;durP1;ratioP1;P2;durP2;ratioP2
77531;SDS011;70100;44.486;0.266;2023-06-10T00:01:01;4.30;;;2.43;;
77531;SDS011;70100;44.486;0.266;2023-06-10T00:06:36;7.83;;;2.47;;
77531;SDS011;70100;44.486;0.266;2023-06-10T00:12:07;6.77;;;2.20;;
77531;SDS011;70100;44.486;0.266;2023-06-10T00:17:41;7.77;;;2.90;;
77531;SDS011;70100;44.486;0.266;2023-06-10T00:23:14;8.80;;;3.60;;
77531;SDS011;70100;44.486;0.266;2023-06-10T00:28:45;9.07;;;3.50;;
77531;SDS011;70100;44.486;0.266;2023-06-10T00:34:17;5.87;;;2.67;;
77531;SDS011;70100;44.486;0.266;2023-06-10T00:45:22;6.23;;;4.40;;
77531;SDS011;70100;44.486;0.266;2023-06-10T00:50:55;8.40;;;4.03;;
77531;SDS011;70100;44.486;0.266;2023-06-10T00:56:28;6.07;;;3.87;;
77531;SDS011;70100;44.486;0.266;2023-06-10T01:02:03;5.43;;;3.93;;
77531;SDS011;70100;44.486;0.266;2023-06-10T01:07:36;4.60;;;3.13;;
77531;SDS011;70100;44.486;0.266;2023-06-10T01:13:07;8.47;;;4.27;;
77531;SDS011;70100;44.486;0.266;2023-06-10T01:18:39;8.10;;;4.43;;
77531;SDS011;70100;44.486;0.266;2023-06-10T01:24:11;7.40;;;4.07;;
77531;SDS011;70100;44.486;0.266;2023-06-10T01:29:45;11.57;;;4.53;;
77531;SDS011;70100;44.486;0.266;2023-06-10T01:35:15;7.23;;;4.20;;
77531;SDS011;70100;44.486;0.266;2023-06-10T01:40:47;8.27;;;3.77;;
77531;SDS011;70100;44.486;0.266;2023-06-10T01:46:21;8.57;;;3.80;;
77531;SDS011;70100;44.486;0.266;2023-06-10T01:51:52;6.97;;;3.43;;
77531;SDS011;70100;44.486;0.266;2023-06-10T01:57:26;7.67;;;4.17;;
77531;SDS011;70100;44.486;0.266;2023-06-10T02:02:58;9.20;;;4.27;;
77531;SDS011;70100;44.486;0.266;2023-06-10T02:08:30;11.67;;;5.37;;
77531;SDS011;70100;44.486;0.266;2023-06-10T02:14:03;8.53;;;4.97;;
77531;SDS011;70100;44.486;0.266;2023-06-10T02:19:36;7.63;;;4.80;;
77531;SDS011;70100;44.486;0.266;2023-06-10T02:25:08;9.17;;;4.97;;
77531;SDS011;70100;44.486;0.266;2023-06-10T02:30:42;8.97;;;4.47;;
77531;SDS011;70100;44.486;0.266;2023-06-10T02:36:16;9.80;;;5.07;;
77531;SDS011;70100;44.486;0.266;2023-06-10T02:41:47;11.17;;;4.20;;
77531;SDS011;70100;44.486;0.266;2023-06-10T02:47:20;6.17;;;3.63;;
77531;SDS011;70100;44.486;0.266;2023-06-10T02:52:53;7.37;;;3.93;;
77531;SDS011;70100;44.486;0.266;2023-06-10T02:58:26;9.37;;;4.03;;
77531;SDS011;70100;44.486;0.266;2023-06-10T03:03:58;8.20;;;3.53;;
77531;SDS011;70100;44.486;0.266;2023-06-10T03:15:04;7.13;;;3.60;;
77531;SDS011;70100;44.486;0.266;2023-06-10T03:26:10;9.93;;;4.17;;
77531;SDS011;70100;44.486;0.266;2023-06-10T03:37:15;10.73;;;3.97;;
77531;SDS011;70100;44.486;0.266;2023-06-10T03:42:48;8.13;;;4.40;;
77531;SDS011;70100;44.486;0.266;2023-06-10T03:48:22;11.13;;;4.40;;
77531;SDS011;70100;44.486;0.266;2023-06-10T03:53:55;8.67;;;4.30;;
77531;SDS011;70100;44.486;0.266;2023-06-10T03:59:29;9.10;;;4.77;;
77531;SDS011;70100;44.486;0.266;2023-06-10T04:05:01;-1.00;;;-1.00;;
77531;SDS011;70100;44.486;0.266;2023-06-10T04:10:34;11.90;;;6.03;;
77531;SDS011;70100;44.486;0.266;2023-06-10T04:16:06;10.37;;;5.10;;
77531;SDS011;70100;44.486;0.266;2023-06-10T04:21:38;13.50;;;6.53;;
77531;SDS011;70100;44.486;0.266;2023-06-10T04:27:11;17.90;;;7.60;;
77531;SDS011;70100;44.486;0.266;2023-06-10T04:32:43;15.50;;;6.47;;
77531;SDS011;70100;44.486;0.266;2023-06-10T04:38:16;18.50;;;8.50;;
77531;SDS011;70100;44.486;0.266;2023-06-10T04:43:49;22.60;;;8.00;;
77531;SDS011;70100;44.486;0.266;2023-06-10T04:49:23;16.07;;;7.20;;
77531;SDS011;70100;44.486;0.266;2023-06-10T04:54:55;15.03;;;6.70;;
77531;SDS011;70100;44.486;0.266;2023-06-10T05:00:28;23.20;;;7.33;;
77531;SDS011;70100;44.486;0.266;2023-06-10T05:06:01;15.23;;;7.57;;
77531;SDS011;70100;44.486;0.266;2023-06-10T05:11:34;12.83;;;7.73;;
77531;SDS011;70100;44.486;0.266;2023-06-10T05:22:38;14.23;;;7.10;;
77531;SDS011;70100;44.486;0.266;2023-06-10T05:33:44;13.87;;;8.27;;
77531;SDS011;70100;44.486;0.266;2023-06-10T05:39:17;14.03;;;7.53;;
77531;SDS011;70100;44.486;0.266;2023-06-10T05:44:49;-1.00;;;-1.00;;
77531;SDS011;70100;44.486;0.266;2023-06-10T05:50:21;10.93;;;7.23;;
77531;SDS011;70100;44.486;0.266;2023-06-10T05:55:57;13.07;;;7.40;;
77531;SDS011;70100;44.486;0.266;2023-06-10T06:01:28;13.03;;;7.30;;
77531;SDS011;70100;44.486;0.266;2023-06-10T06:07:00;14.07;;;6.23;;
77531;SDS011;70100;44.486;0.266;2023-06-10T06:12:33;11.90;;;6.77;;
77531;SDS011;70100;44.486;0.266;2023-06-10T06:18:06;9.53;;;5.17;;
77531;SDS011;70100;44.486;0.266;2023-06-10T06:23:38;11.93;;;6.00;;
77531;SDS011;70100;44.486;0.266;2023-06-10T06:29:11;13.63;;;6.23;;
77531;SDS011;70100;44.486;0.266;2023-06-10T06:40:18;10.40;;;6.53;;
77531;SDS011;70100;44.486;0.266;2023-06-10T06:45:51;9.07;;;5.23;;
77531;SDS011;70100;44.486;0.266;2023-06-10T06:51:23;11.23;;;7.00;;
77531;SDS011;70100;44.486;0.266;2023-06-10T06:56:56;9.07;;;6.03;;
77531;SDS011;70100;44.486;0.266;2023-06-10T07:02:29;8.70;;;6.03;;
77531;SDS011;70100;44.486;0.266;2023-06-10T07:08:02;9.13;;;5.27;;
77531;SDS011;70100;44.486;0.266;2023-06-10T07:13:35;14.07;;;6.67;;
77531;SDS011;70100;44.486;0.266;2023-06-10T07:19:09;13.70;;;6.30;;
77531;SDS011;70100;44.486;0.266;2023-06-10T07:24:41;8.50;;;5.17;;
77531;SDS011;70100;44.486;0.266;2023-06-10T07:30:14;10.07;;;6.17;;
77531;SDS011;70100;44.486;0.266;2023-06-10T07:35:47;10.17;;;6.10;;
77531;SDS011;70100;44.486;0.266;2023-06-10T07:41:22;12.63;;;6.47;;
77531;SDS011;70100;44.486;0.266;2023-06-10T07:46:53;8.67;;;6.03;;
77531;SDS011;70100;44.486;0.266;2023-06-10T07:52:28;10.07;;;6.33;;
77531;SDS011;70100;44.486;0.266;2023-06-10T07:57:59;8.63;;;5.17;;
77531;SDS011;70100;44.486;0.266;2023-06-10T08:03:32;7.17;;;4.43;;
77531;SDS011;70100;44.486;0.266;2023-06-10T08:09:05;6.70;;;4.70;;
77531;SDS011;70100;44.486;0.266;2023-06-10T08:14:39;8.87;;;5.20;;
77531;SDS011;70100;44.486;0.266;2023-06-10T08:20:10;7.03;;;4.30;;
77531;SDS011;70100;44.486;0.266;2023-06-10T08:25:43;7.07;;;4.00;;
77531;SDS011;70100;44.486;0.266;2023-06-10T08:31:16;5.87;;;4.17;;
77531;SDS011;70100;44.486;0.266;2023-06-10T08:36:48;8.80;;;4.30;;
77531;SDS011;70100;44.486;0.266;2023-06-10T08:47:53;7.33;;;4.80;;
77531;SDS011;70100;44.486;0.266;2023-06-10T08:53:25;7.90;;;3.83;;
77531;SDS011;70100;44.486;0.266;2023-06-10T08:58:58;5.03;;;3.43;;
77531;SDS011;70100;44.486;0.266;2023-06-10T09:04:32;6.23;;;4.23;;
77531;SDS011;70100;44.486;0.266;2023-06-10T09:10:07;6.47;;;3.77;;
77531;SDS011;70100;44.486;0.266;2023-06-10T09:15:37;5.77;;;4.23;;
77531;SDS011;70100;44.486;0.266;2023-06-10T09:21:10;6.90;;;4.27;;
77531;SDS011;70100;44.486;0.266;2023-06-10T09:26:44;4.80;;;3.43;;
77531;SDS011;70100;44.486;0.266;2023-06-10T09:32:17;5.43;;;3.90;;
77531;SDS011;70100;44.486;0.266;2023-06-10T09:37:50;6.60;;;4.03;;
77531;SDS011;70100;44.486;0.266;2023-06-10T09:43:23;4.77;;;4.17;;
77531;SDS011;70100;44.486;0.266;2023-06-10T09:48:57;5.37;;;3.47;;
77531;SDS011;70100;44.486;0.266;2023-06-10T09:54:31;5.20;;;2.97;;
77531;SDS011;70100;44.486;0.266;2023-06-10T10:00:04;4.97;;;3.87;;
77531;SDS011;70100;44.486;0.266;2023-06-10T10:05:35;4.67;;;3.53;;
77531;SDS011;70100;44.486;0.266;2023-06-10T10:11:07;4.83;;;3.30;;
77531;SDS011;70100;44.486;0.266;2023-06-10T10:16:41;4.20;;;3.47;;
77531;SDS011;70100;44.486;0.266;2023-06-10T10:22:15;5.97;;;3.17;;
77531;SDS011;70100;44.486;0.266;2023-06-10T10:27:48;4.37;;;3.10;;
77531;SDS011;70100;44.486;0.266;2023-06-10T10:33:18;5.10;;;3.83;;
77531;SDS011;70100;44.486;0.266;2023-06-10T10:38:51;4.50;;;3.53;;
77531;SDS011;70100;44.486;0.266;2023-06-10T10:44:25;3.53;;;2.80;;
77531;SDS011;70100;44.486;0.266;2023-06-10T10:49:59;7.93;;;4.00;;
77531;SDS011;70100;44.486;0.266;2023-06-10T10:55:30;4.47;;;3.47;;
77531;SDS011;70100;44.486;0.266;2023-06-10T11:06:36;3.63;;;3.17;;
77531;SDS011;70100;44.486;0.266;2023-06-10T11:12:10;4.73;;;3.30;;
77531;SDS011;70100;44.486;0.266;2023-06-10T11:34:23;4.03;;;3.63;;
77531;SDS011;70100;44.486;0.266;2023-06-10T11:39:54;4.03;;;3.33;;
77531;SDS011;70100;44.486;0.266;2023-06-10T11:45:28;4.20;;;2.70;;
77531;SDS011;70100;44.486;0.266;2023-06-10T11:51:04;3.60;;;3.00;;
77531;SDS011;70100;44.486;0.266;2023-06-10T11:56:33;3.70;;;2.80;;
77531;SDS011;70100;44.486;0.266;2023-06-10T12:02:12;3.50;;;2.77;;
77531;SDS011;70100;44.486;0.266;2023-06-10T12:07:40;11.83;;;3.47;;
77531;SDS011;70100;44.486;0.266;2023-06-10T12:13:13;2.87;;;2.27;;
77531;SDS011;70100;44.486;0.266;2023-06-10T12:18:46;3.63;;;2.43;;
77531;SDS011;70100;44.486;0.266;2023-06-10T12:24:18;5.40;;;3.47;;
77531;SDS011;70100;44.486;0.266;2023-06-10T12:29:52;3.70;;;3.40;;
77531;SDS011;70100;44.486;0.266;2023-06-10T12:35:25;3.43;;;3.17;;
77531;SDS011;70100;44.486;0.266;2023-06-10T12:41:01;5.83;;;2.30;;
77531;SDS011;70100;44.486;0.266;2023-06-10T12:46:35;3.13;;;2.20;;
77531;SDS011;70100;44.486;0.266;2023-06-10T12:52:00;2.00;;;1.90;;
77531;SDS011;70100;44.486;0.266;2023-06-10T12:57:33;4.60;;;2.20;;
77531;SDS011;70100;44.486;0.266;2023-06-10T13:03:06;5.43;;;2.27;;
77531;SDS011;70100;44.486;0.266;2023-06-10T13:08:38;2.63;;;2.00;;
77531;SDS011;70100;44.486;0.266;2023-06-10T13:14:11;2.33;;;1.90;;
77531;SDS011;70100;44.486;0.266;2023-06-10T13:19:42;4.23;;;2.80;;
77531;SDS011;70100;44.486;0.266;2023-06-10T13:25:15;3.03;;;2.77;;
77531;SDS011;70100;44.486;0.266;2023-06-10T13:30:46;2.43;;;2.23;;
77531;SDS011;70100;44.486;0.266;2023-06-10T13:36:20;2.57;;;2.37;;
77531;SDS011;70100;44.486;0.266;2023-06-10T13:41:53;3.00;;;2.00;;
77531;SDS011;70100;44.486;0.266;2023-06-10T13:47:27;4.53;;;2.63;;
77531;SDS011;70100;44.486;0.266;2023-06-10T13:52:59;2.87;;;2.30;;
77531;SDS011;70100;44.486;0.266;2023-06-10T13:58:32;3.33;;;2.43;;
77531;SDS011;70100;44.486;0.266;2023-06-10T14:04:04;3.13;;;2.23;;
77531;SDS011;70100;44.486;0.266;2023-06-10T14:09:37;6.57;;;2.73;;
77531;SDS011;70100;44.486;0.266;2023-06-10T14:15:09;3.17;;;2.63;;
77531;SDS011;70100;44.486;0.266;2023-06-10T14:20:43;3.47;;;2.73;;
77531;SDS011;70100;44.486;0.266;2023-06-10T14:26:15;3.70;;;3.03;;
77531;SDS011;70100;44.486;0.266;2023-06-10T14:31:47;2.13;;;1.93;;
77531;SDS011;70100;44.486;0.266;2023-06-10T14:37:20;2.50;;;2.30;;
77531;SDS011;70100;44.486;0.266;2023-06-10T14:42:52;2.37;;;2.07;;
77531;SDS011;70100;44.486;0.266;2023-06-10T14:48:23;2.57;;;1.97;;
77531;SDS011;70100;44.486;0.266;2023-06-10T14:53:57;2.53;;;2.20;;
77531;SDS011;70100;44.486;0.266;2023-06-10T14:59:30;2.83;;;2.30;;
77531;SDS011;70100;44.486;0.266;2023-06-10T15:05:04;3.57;;;2.33;;
77531;SDS011;70100;44.486;0.266;2023-06-10T15:10:35;3.63;;;3.27;;
77531;SDS011;70100;44.486;0.266;2023-06-10T15:16:07;3.30;;;3.03;;
77531;SDS011;70100;44.486;0.266;2023-06-10T15:21:42;3.57;;;2.23;;
77531;SDS011;70100;44.486;0.266;2023-06-10T15:27:13;3.07;;;2.30;;
77531;SDS011;70100;44.486;0.266;2023-06-10T15:32:44;2.97;;;2.53;;
77531;SDS011;70100;44.486;0.266;2023-06-10T15:38:17;3.10;;;2.57;;
77531;SDS011;70100;44.486;0.266;2023-06-10T15:43:50;4.43;;;2.87;;
77531;SDS011;70100;44.486;0.266;2023-06-10T15:49:22;3.33;;;2.87;;
77531;SDS011;70100;44.486;0.266;2023-06-10T15:54:55;4.60;;;3.13;;
77531;SDS011;70100;44.486;0.266;2023-06-10T16:00:28;4.63;;;2.30;;
77531;SDS011;70100;44.486;0.266;2023-06-10T16:06:00;5.80;;;3.23;;
77531;SDS011;70100;44.486;0.266;2023-06-10T16:11:33;6.20;;;3.60;;
77531;SDS011;70100;44.486;0.266;2023-06-10T16:17:07;7.13;;;3.90;;
77531;SDS011;70100;44.486;0.266;2023-06-10T16:22:41;4.40;;;2.63;;
77531;SDS011;70100;44.486;0.266;2023-06-10T16:28:14;4.63;;;2.93;;
77531;SDS011;70100;44.486;0.266;2023-06-10T16:33:47;3.03;;;2.70;;
77531;SDS011;70100;44.486;0.266;2023-06-10T16:39:19;3.63;;;2.87;;
77531;SDS011;70100;44.486;0.266;2023-06-10T16:44:51;3.10;;;2.80;;
77531;SDS011;70100;44.486;0.266;2023-06-10T16:50:24;2.93;;;2.73;;
77531;SDS011;70100;44.486;0.266;2023-06-10T16:55:57;2.20;;;2.00;;
77531;SDS011;70100;44.486;0.266;2023-06-10T17:01:29;24.87;;;6.60;;
77531;SDS011;70100;44.486;0.266;2023-06-10T17:07:01;3.67;;;2.63;;
77531;SDS011;70100;44.486;0.266;2023-06-10T17:12:35;2.00;;;1.90;;
77531;SDS011;70100;44.486;0.266;2023-06-10T17:18:05;2.67;;;1.63;;
77531;SDS011;70100;44.486;0.266;2023-06-10T17:23:37;3.37;;;1.80;;
77531;SDS011;70100;44.486;0.266;2023-06-10T17:29:10;3.23;;;2.00;;
77531;SDS011;70100;44.486;0.266;2023-06-10T17:34:42;2.30;;;1.97;;
77531;SDS011;70100;44.486;0.266;2023-06-10T17:40:15;2.00;;;1.87;;
77531;SDS011;70100;44.486;0.266;2023-06-10T17:45:49;3.50;;;1.83;;
77531;SDS011;70100;44.486;0.266;2023-06-10T17:51:19;3.70;;;2.40;;
77531;SDS011;70100;44.486;0.266;2023-06-10T17:56:52;4.60;;;3.17;;
77531;SDS011;70100;44.486;0.266;2023-06-10T18:02:27;5.00;;;3.13;;
77531;SDS011;70100;44.486;0.266;2023-06-10T18:07:58;2.73;;;2.53;;
77531;SDS011;70100;44.486;0.266;2023-06-10T18:13:30;2.60;;;2.10;;
77531;SDS011;70100;44.486;0.266;2023-06-10T18:19:02;3.23;;;2.10;;
77531;SDS011;70100;44.486;0.266;2023-06-10T18:24:34;2.57;;;1.90;;
77531;SDS011;70100;44.486;0.266;2023-06-10T18:30:08;3.37;;;2.10;;
77531;SDS011;70100;44.486;0.266;2023-06-10T18:35:41;2.37;;;2.17;;
77531;SDS011;70100;44.486;0.266;2023-06-10T18:41:15;2.97;;;1.77;;
77531;SDS011;70100;44.486;0.266;2023-06-10T18:46:47;4.13;;;2.57;;
77531;SDS011;70100;44.486;0.266;2023-06-10T18:52:20;4.33;;;2.93;;
77531;SDS011;70100;44.486;0.266;2023-06-10T18:57:53;4.10;;;3.07;;
77531;SDS011;70100;44.486;0.266;2023-06-10T19:03:25;5.87;;;2.27;;
77531;SDS011;70100;44.486;0.266;2023-06-10T19:08:58;3.57;;;2.00;;
77531;SDS011;70100;44.486;0.266;2023-06-10T19:14:30;3.27;;;2.90;;
77531;SDS011;70100;44.486;0.266;2023-06-10T19:20:01;7.10;;;2.37;;
77531;SDS011;70100;44.486;0.266;2023-06-10T19:25:32;6.30;;;2.50;;
77531;SDS011;70100;44.486;0.266;2023-06-10T19:31:06;4.27;;;2.33;;
77531;SDS011;70100;44.486;0.266;2023-06-10T19:36:39;5.43;;;2.43;;
77531;SDS011;70100;44.486;0.266;2023-06-10T19:42:11;4.27;;;2.73;;
77531;SDS011;70100;44.486;0.266;2023-06-10T19:47:45;5.07;;;2.93;;
77531;SDS011;70100;44.486;0.266;2023-06-10T19:53:17;2.97;;;2.77;;
77531;SDS011;70100;44.486;0.266;2023-06-10T19:58:50;3.00;;;2.27;;
77531;SDS011;70100;44.486;0.266;2023-06-10T20:04:22;4.10;;;2.10;;
77531;SDS011;70100;44.486;0.266;2023-06-10T20:09:54;3.67;;;2.27;;
77531;SDS011;70100;44.486;0.266;2023-06-10T20:15:27;3.97;;;2.30;;
77531;SDS011;70100;44.486;0.266;2023-06-10T20:20:59;7.70;;;4.83;;
77531;SDS011;70100;44.486;0.266;2023-06-10T20:26:32;8.00;;;4.80;;
77531;SDS011;70100;44.486;0.266;2023-06-10T20:32:05;12.17;;;4.50;;
77531;SDS011;70100;44.486;0.266;2023-06-10T20:37:38;3.80;;;2.20;;
77531;SDS011;70100;44.486;0.266;2023-06-10T20:43:11;3.33;;;2.77;;
77531;SDS011;70100;44.486;0.266;2023-06-10T20:48:42;4.60;;;2.77;;
77531;SDS011;70100;44.486;0.266;2023-06-10T20:54:15;1.97;;;1.67;;
77531;SDS011;70100;44.486;0.266;2023-06-10T20:59:48;2.83;;;1.50;;
77531;SDS011;70100;44.486;0.266;2023-06-10T21:05:21;2.77;;;1.60;;
77531;SDS011;70100;44.486;0.266;2023-06-10T21:10:54;3.40;;;1.40;;
77531;SDS011;70100;44.486;0.266;2023-06-10T21:16:27;2.77;;;1.47;;
77531;SDS011;70100;44.486;0.266;2023-06-10T21:21:58;1.30;;;1.20;;
77531;SDS011;70100;44.486;0.266;2023-06-10T21:27:31;1.93;;;1.70;;
77531;SDS011;70100;44.486;0.266;2023-06-10T21:33:06;2.43;;;1.30;;
77531;SDS011;70100;44.486;0.266;2023-06-10T21:38:38;2.60;;;1.73;;
77531;SDS011;70100;44.486;0.266;2023-06-10T21:44:10;2.13;;;1.93;;
77531;SDS011;70100;44.486;0.266;2023-06-10T21:49:42;-1.00;;;-1.00;;
77531;SDS011;70100;44.486;0.266;2023-06-10T21:55:14;2.23;;;1.73;;
77531;SDS011;70100;44.486;0.266;2023-06-10T22:00:47;2.83;;;1.83;;
77531;SDS011;70100;44.486;0.266;2023-06-10T22:06:19;4.20;;;1.80;;
77531;SDS011;70100;44.486;0.266;2023-06-10T22:11:51;2.47;;;1.57;;
77531;SDS011;70100;44.486;0.266;2023-06-10T22:17:23;1.30;;;1.17;;
77531;SDS011;70100;44.486;0.266;2023-06-10T22:22:57;3.20;;;1.80;;
77531;SDS011;70100;44.486;0.266;2023-06-10T22:28:29;4.00;;;1.33;;
77531;SDS011;70100;44.486;0.266;2023-06-10T22:34:02;2.43;;;1.47;;
77531;SDS011;70100;44.486;0.266;2023-06-10T22:39:35;5.33;;;2.13;;
77531;SDS011;70100;44.486;0.266;2023-06-10T22:45:09;4.13;;;2.03;;
77531;SDS011;70100;44.486;0.266;2023-06-10T22:50:40;2.87;;;2.03;;
77531;SDS011;70100;44.486;0.266;2023-06-10T22:56:13;3.43;;;1.60;;
77531;SDS011;70100;44.486;0.266;2023-06-10T23:01:44;3.50;;;1.80;;
77531;SDS011;70100;44.486;0.266;2023-06-10T23:07:20;1.83;;;1.57;;
77531;SDS011;70100;44.486;0.266;2023-06-10T23:12:50;1.67;;;1.30;;
77531;SDS011;70100;44.486;0.266;2023-06-10T23:18:23;3.63;;;1.77;;
77531;SDS011;70100;44.486;0.266;2023-06-10T23:23:57;2.83;;;1.63;;
77531;SDS011;70100;44.486;0.266;2023-06-10T23:29:27;1.77;;;1.57;;
77531;SDS011;70100;44.486;0.266;2023-06-10T23:35:01;4.50;;;2.13;;
77531;SDS011;70100;44.486;0.266;2023-06-10T23:40:32;3.73;;;2.33;;
77531;SDS011;70100;44.486;0.266;2023-06-10T23:46:04;5.17;;;1.63;;
77531;SDS011;70100;44.486;0.266;2023-06-10T23:51:37;4.27;;;1.40;;
77531;SDS011;70100;44.486;0.266;2023-06-10T23:57:10;2.77;;;1.27;;
